createdAt,value
2023-01-19T00:00:18.265Z,75.27
2023-01-19T00:05:17.405Z,74.08
2023-01-19T00:10:16.524Z,75.29
2023-01-19T00:15:15.280Z,74.66
2023-01-19T00:20:14.458Z,70.48
2023-01-19T00:25:14.280Z,74.07
2023-01-19T00:30:13.488Z,74.73
2023-01-19T00:35:12.269Z,72.21
2023-01-19T00:40:11.813Z,72.39
2023-01-19T00:45:13.267Z,73.62
2023-01-19T00:50:13.291Z,73.85
2023-01-19T00:55:14.603Z,75.12
2023-01-19T01:00:16.255Z,73.61
2023-01-19T01:05:15.440Z,74.26
2023-01-19T01:10:20.228Z,73.79
2023-01-19T01:15:19.734Z,75.26
2023-01-19T01:20:24.309Z,77.27
2023-01-19T01:25:24.956Z,75.77
2023-01-19T01:30:23.880Z,75.12
2023-01-19T01:35:22.668Z,76.09
2023-01-19T01:40:21.516Z,75.36
2023-01-19T01:45:31.028Z,72.88
2023-01-19T01:50:32.672Z,73.72
2023-01-19T01:55:34.879Z,76.16
2023-01-19T02:00:53.841Z,75.95
2023-01-19T02:05:57.766Z,75.70
2023-01-19T02:11:17.098Z,74.64
2023-01-19T02:16:17.190Z,75.63
2023-01-19T02:21:52.165Z,77.13
2023-01-19T02:26:51.594Z,76.06
2023-01-19T02:31:51.033Z,74.71
2023-01-19T02:37:06.599Z,75.03
2023-01-19T02:42:27.239Z,74.73
2023-01-19T02:47:26.200Z,76.70
2023-01-19T02:52:25.826Z,77.20
2023-01-19T02:57:48.086Z,76.52
2023-01-19T03:03:12.054Z,76.67
2023-01-19T03:08:16.590Z,78.07
2023-01-19T03:13:18.040Z,76.17
2023-01-19T03:18:21.342Z,75.58
2023-01-19T03:23:23.453Z,75.42
2023-01-19T03:28:25.197Z,74.77
2023-01-19T03:33:28.657Z,76.65
2023-01-19T03:38:31.384Z,74.86
2023-01-19T03:43:31.834Z,78.53
2023-01-19T03:48:31.355Z,77.86
2023-01-19T03:53:30.094Z,74.64
2023-01-19T03:58:29.187Z,75.47
2023-01-19T04:03:28.294Z,76.03
2023-01-19T04:08:27.171Z,75.69
2023-01-19T04:13:28.658Z,73.84
2023-01-19T04:18:33.827Z,74.40
2023-01-19T04:23:33.956Z,73.09
2023-01-19T04:28:34.930Z,73.04
2023-01-19T04:33:34.301Z,73.53
2023-01-19T04:38:33.006Z,72.87
2023-01-19T04:43:31.777Z,74.02
2023-01-19T04:48:30.745Z,76.26
2023-01-19T04:53:29.595Z,76.85
2023-01-19T04:58:28.428Z,75.45
2023-01-19T05:03:27.261Z,75.78
2023-01-19T05:08:26.235Z,75.69
2023-01-19T05:13:25.266Z,74.63
2023-01-19T05:18:24.255Z,73.46
2023-01-19T05:23:23.203Z,74.83
2023-01-19T05:28:22.195Z,92.36
2023-01-19T05:33:22.570Z,75.54
2023-01-19T05:38:34.309Z,59.47
2023-01-19T05:43:33.971Z,48.06
2023-01-19T05:48:32.825Z,60.85
2023-01-19T05:53:31.905Z,67.28
2023-01-19T05:58:31.180Z,69.80
2023-01-19T06:03:30.418Z,70.99
2023-01-19T06:08:29.793Z,72.47
2023-01-19T06:13:28.509Z,73.08
2023-01-19T06:18:28.362Z,72.22
2023-01-19T06:23:32.415Z,72.75
2023-01-19T06:28:31.550Z,74.92
2023-01-19T06:33:30.291Z,73.58
2023-01-19T06:38:29.235Z,74.07
2023-01-19T06:43:28.257Z,72.89
2023-01-19T06:48:27.337Z,71.92
2023-01-19T06:53:28.057Z,73.94
2023-01-19T06:58:27.745Z,73.52
2023-01-19T07:03:26.630Z,72.45
2023-01-19T07:08:25.507Z,72.03
2023-01-19T07:13:24.538Z,72.62
2023-01-19T07:18:23.360Z,73.24
2023-01-19T07:23:22.199Z,73.90
2023-01-19T07:28:21.294Z,74.89
2023-01-19T07:33:22.286Z,75.65
2023-01-19T07:38:21.469Z,74.03
2023-01-19T07:43:20.669Z,74.71
2023-01-19T07:48:19.668Z,74.93
2023-01-19T07:53:18.688Z,73.80
2023-01-19T07:58:17.622Z,73.65
2023-01-19T08:03:17.724Z,75.17
2023-01-19T08:08:16.499Z,74.31
2023-01-19T08:13:15.335Z,74.58
2023-01-19T08:18:15.858Z,73.56
2023-01-19T08:23:14.682Z,72.68
2023-01-19T08:28:16.643Z,74.87
2023-01-19T08:33:15.460Z,73.04
2023-01-19T08:38:14.940Z,73.15
2023-01-19T08:43:16.350Z,72.95
2023-01-19T08:48:17.230Z,73.12
2023-01-19T08:53:17.023Z,72.64
2023-01-19T08:58:16.713Z,72.96
2023-01-19T09:03:15.623Z,71.38
2023-01-19T09:08:15.547Z,70.01
2023-01-19T09:13:15.282Z,69.08
2023-01-19T09:18:18.087Z,70.21
2023-01-19T09:23:20.295Z,70.51
2023-01-19T09:28:19.381Z,68.78
2023-01-19T09:33:19.516Z,67.39
2023-01-19T09:38:20.203Z,68.23
2023-01-19T09:43:42.780Z,68.26
2023-01-19T09:49:16.068Z,67.89
2023-01-19T09:54:36.601Z,68.12
2023-01-19T09:59:36.652Z,67.25
2023-01-19T10:04:43.723Z,67.88
2023-01-19T10:09:48.577Z,68.18
2023-01-19T10:15:07.058Z,67.43
2023-01-19T10:20:18.069Z,67.89
2023-01-19T10:28:25.433Z,66.65
2023-01-19T10:33:24.506Z,66.10
2023-01-19T10:38:23.546Z,65.50
2023-01-19T10:43:35.012Z,65.84
2023-01-19T10:48:42.113Z,66.93
2023-01-19T10:53:53.578Z,67.37
2023-01-19T10:58:52.680Z,66.09
2023-01-19T11:03:53.523Z,64.38
2023-01-19T11:08:53.956Z,62.50
2023-01-19T11:14:10.156Z,59.40
2023-01-19T11:19:20.108Z,57.27
2023-01-19T11:24:20.280Z,58.21
2023-01-19T11:29:25.712Z,58.12
2023-01-19T11:34:32.161Z,57.65
2023-01-19T11:39:45.021Z,56.93
2023-01-19T11:44:52.970Z,61.62
2023-01-19T11:50:16.070Z,64.10
2023-01-19T11:55:27.068Z,63.54
2023-01-19T12:00:46.908Z,63.62
2023-01-19T12:05:50.143Z,63.86
2023-01-19T12:10:51.987Z,60.67
2023-01-19T12:16:00.394Z,57.79
2023-01-19T12:20:59.215Z,55.33
2023-01-19T12:26:46.868Z,55.01
2023-01-19T12:31:45.939Z,54.31
2023-01-19T12:36:44.967Z,54.34
2023-01-19T12:41:45.501Z,54.17
2023-01-19T12:46:50.349Z,54.05
2023-01-19T12:51:51.119Z,52.78
2023-01-19T12:56:56.008Z,53.53
2023-01-19T13:02:24.335Z,52.97
2023-01-19T13:07:22.985Z,53.50
2023-01-19T13:12:22.779Z,54.62
2023-01-19T13:17:21.813Z,53.88
2023-01-19T13:22:49.780Z,53.35
2023-01-19T13:27:49.993Z,53.70
2023-01-19T13:32:48.946Z,53.22
2023-01-19T13:37:49.129Z,52.80
2023-01-19T13:42:49.454Z,53.03
2023-01-19T13:47:49.978Z,53.54
2023-01-19T13:52:51.404Z,52.87
2023-01-19T13:57:51.715Z,53.73
2023-01-19T14:02:59.063Z,53.62
2023-01-19T14:08:13.340Z,54.43
2023-01-19T14:13:30.031Z,53.92
2023-01-19T14:18:31.204Z,54.57
2023-01-19T14:24:05.554Z,54.29
2023-01-19T14:29:28.992Z,55.45
2023-01-19T14:34:41.338Z,55.10
2023-01-19T14:39:45.517Z,56.48
2023-01-19T14:44:49.165Z,55.96
2023-01-19T14:49:48.081Z,55.32
2023-01-19T14:54:48.360Z,56.51
2023-01-19T14:59:49.879Z,55.91
2023-01-19T15:04:48.827Z,56.43
2023-01-19T15:09:48.490Z,56.98
2023-01-19T15:14:47.617Z,57.03
2023-01-19T15:19:46.519Z,56.56
2023-01-19T15:24:48.719Z,59.82
2023-01-19T15:29:47.701Z,59.35
2023-01-19T15:34:46.748Z,57.57
2023-01-19T15:39:45.607Z,59.02
2023-01-19T15:44:45.390Z,59.16
2023-01-19T15:49:44.254Z,60.32
2023-01-19T15:54:43.179Z,60.81
2023-01-19T15:59:42.203Z,59.57
2023-01-19T16:04:41.285Z,60.61
2023-01-19T16:09:40.499Z,60.98
2023-01-19T16:14:39.258Z,87.21
2023-01-19T16:19:58.789Z,57.98
2023-01-19T16:24:57.711Z,56.78
2023-01-19T16:29:57.141Z,55.59
2023-01-19T16:34:55.970Z,55.92
2023-01-19T16:39:54.907Z,57.64
2023-01-19T16:44:54.634Z,57.58
2023-01-19T16:49:53.411Z,60.71
2023-01-19T16:54:54.728Z,58.55
2023-01-19T16:59:53.599Z,61.20
2023-01-19T17:04:52.374Z,58.56
2023-01-19T17:09:51.209Z,57.57
2023-01-19T17:14:49.951Z,58.91
2023-01-19T17:19:48.751Z,57.78
2023-01-19T17:24:47.600Z,59.37
2023-01-19T17:29:48.629Z,59.06
2023-01-19T17:34:51.384Z,58.76
2023-01-19T17:39:50.214Z,58.07
2023-01-19T17:44:49.025Z,57.03
2023-01-19T17:49:47.903Z,57.93
2023-01-19T17:54:46.774Z,58.14
2023-01-19T17:59:47.285Z,59.80
2023-01-19T18:04:46.122Z,60.96
2023-01-19T18:09:44.975Z,62.84
2023-01-19T18:14:43.800Z,61.89
2023-01-19T18:19:42.595Z,62.07
2023-01-19T18:24:41.367Z,61.98
2023-01-19T18:29:40.338Z,65.24
2023-01-19T18:34:39.164Z,64.42
2023-01-19T18:39:37.901Z,65.07
2023-01-19T18:44:36.662Z,65.04
2023-01-19T18:49:35.364Z,65.12
2023-01-19T18:54:34.109Z,65.68
2023-01-19T18:59:32.821Z,64.55
2023-01-19T19:04:31.563Z,63.88
2023-01-19T19:09:30.527Z,63.72
2023-01-19T19:14:29.386Z,65.15
2023-01-19T19:19:28.137Z,65.39
2023-01-19T19:24:26.993Z,64.02
2023-01-19T19:29:25.955Z,63.80
2023-01-19T19:34:25.125Z,63.71
2023-01-19T19:39:23.815Z,64.63
2023-01-19T19:44:22.581Z,64.04
2023-01-19T19:49:21.507Z,63.62
2023-01-19T19:54:20.318Z,64.15
2023-01-19T19:59:19.400Z,64.22
2023-01-19T20:04:20.364Z,64.02
2023-01-19T20:09:19.251Z,64.77
2023-01-19T20:14:18.167Z,65.43
2023-01-19T20:19:18.237Z,65.64
2023-01-19T20:24:19.358Z,65.51
2023-01-19T20:29:19.450Z,65.21
2023-01-19T20:34:20.524Z,64.75
2023-01-19T20:39:20.924Z,64.03
2023-01-19T20:44:23.656Z,65.89
2023-01-19T20:49:22.830Z,66.00
2023-01-19T20:54:24.656Z,66.15
2023-01-19T20:59:23.722Z,65.85
2023-01-19T21:04:22.629Z,66.05
2023-01-19T21:09:22.830Z,66.18
2023-01-19T21:14:21.667Z,66.56
2023-01-19T21:19:20.408Z,65.65
2023-01-19T21:24:19.198Z,68.19
2023-01-19T21:29:18.055Z,65.90
2023-01-19T21:34:17.565Z,66.17
2023-01-19T21:39:17.440Z,65.46
2023-01-19T21:44:16.673Z,66.74
2023-01-19T21:49:20.221Z,66.33
2023-01-19T21:54:19.035Z,68.10
2023-01-19T21:59:20.219Z,67.93
2023-01-19T22:04:19.180Z,67.76
2023-01-19T22:09:17.952Z,69.30
2023-01-19T22:14:16.852Z,69.06
2023-01-19T22:19:15.666Z,68.80
2023-01-19T22:24:14.627Z,68.62
2023-01-19T22:29:13.412Z,69.51
2023-01-19T22:34:13.522Z,69.03
2023-01-19T22:39:13.612Z,68.99
2023-01-19T22:44:18.210Z,68.71
2023-01-19T22:49:18.137Z,69.18
2023-01-19T22:54:16.918Z,67.63
2023-01-19T22:59:15.734Z,67.75
2023-01-19T23:04:16.069Z,68.31
2023-01-19T23:09:14.974Z,69.62
2023-01-19T23:14:16.866Z,67.92
2023-01-19T23:19:17.293Z,67.55
2023-01-19T23:24:16.135Z,68.44
2023-01-19T23:29:15.512Z,66.92
2023-01-19T23:34:15.209Z,67.11
2023-01-19T23:39:18.044Z,67.76
2023-01-19T23:44:17.647Z,68.49
2023-01-19T23:49:17.071Z,68.24
2023-01-19T23:54:15.800Z,69.01
2023-01-19T23:59:15.882Z,68.98
